Warning: Javascript must be enabled to use all the features on this page!


Page Loading - Please Wait...

Click to hideNews Bulletins

Peak Streamflow for the Nation

USGS 01315500 HUDSON RIVER AT NORTH CREEK NY

Warren County, New York
Hydrologic Unit Code 02020001
Latitude  43°42'03", Longitude  73°59'00" NAD83
Drainage area 792  square miles
Gage datum 987.51 feet above NGVD29
Output formats
Table
Graph
Tab-separated file
peakfq (watstore) format
Reselect output format
Water
Year
Date Gage
Height
(feet)
Stream-
flow
(cfs)
1908 1908-04-28 8.80 15,0006
1909 1909-05-12 9.10 16,1006
1910 1910-03-31 7.50 10,7006
1911 1911-05-02 8.10 12,6006
1912 1912-04-17 8.20 12,9006
1913 1913-03-27 11.70 28,4006
1914 1914-04-20 9.75 18,9006
1915 1915-07-11 6.90 8,8106
1916 1916-05-18 8.60 14,1006
1917 1917-06-12 10.60 21,7006
1918 1918-04-03 7.65 11,1006
1919 1919-04-12 8.50 13,8006
1920 1920-04-24 7.52 10,7006
1921 1921-03-21 8.20 12,8006
1922 1922-04-12 10.50 21,3006
1923 1923-05-18 7.50 10,4006
1924 1924-05-07 8.00 12,0006
1925 1925-03-28 8.65 14,2006
1926 1926-04-25 9.20 17,2006
1927 1926-11-18 7.20 9,9906
1928 1928-04-08 9.80 18,9006
1929 1929-04-08 7.40 10,4006
1930 1930-04-08 6.90 9,3906
1931 1931-04-11 7.50 10,0006
1932 1932-05-02 7.04 7,8106
1933 1932-10-07 10.70 20,3006
1934 1934-04-18 7.032 7,9606
1935 1935-05-01 6.782 7,3906
1936 1936-03-19 10.802,5 23,0006
1937 1937-05-16 8.17 11,9006
1938 1938-09-22 9.42 16,7006
1939 1939-04-29 8.65 13,5006
1940 1940-05-03 8.73 13,0006
1941 1941-04-16 8.57 12,4006
1942 1942-09-28 10.13 18,6006
1943 1943-05-13 8.60 12,5006
1944 1944-06-25 8.51 11,8006
1945 1945-05-18 9.40 15,3006
1946 1945-10-03 8.95 13,1006
1947 1947-06-03 11.37 23,6006
1948 1948-03-22 8.60 12,2006
1949 1948-12-31 12.14 28,9006
1950 1950-04-20 8.50 11,8006
1951 1951-03-31 8.72 12,6006
1952 1952-04-20 9.07 14,0006
1953 1953-03-27 10.69 21,2006
1954 1954-04-17 9.25 15,2006
1955 1955-04-16 8.42 12,0006
1956 1956-05-01 8.33 11,7006
1957 1957-04-22 6.12 5,1806
1958 1958-04-22 9.72 16,1006
1959 1959-04-20 7.902 9,9006
1960 1960-04-18 9.14 14,1006
1961 1961-04-24 7.97 10,1006
1962 1962-04-08 8.13 10,6006
1963 1963-04-04 8.66 12,2006
1964 1964-04-15 8.45 11,6006
1965 1965-04-23 7.12 7,6406
1966 1966-05-20 6.90 7,0306
1967 1967-04-03 8.86 12,9006
1968 1968-03-24 7.74 9,4206
1969 1969-05-20 9.64 15,8006
1970 1970-04-26 8.37 11,3006
1971 1971-05-09 8.22 10,9006
1972 1972-05-03 10.63 20,2006
1973 1973-03-18 9.37 14,7006
1974 1974-04-14 8.41 11,4006
1975 1974-12-09 7.44 8,5506
1976 1976-04-01 10.54 19,8006
1977 1977-03-14 9.58 15,6006
1978 1977-10-18 7.52 8,6206
1979 1979-04-28 11.30 25,0006
1980 1980-04-10 9.88 16,8006
1981 1981-02-21 9.452 15,1006
1982 1982-04-18 10.23 18,4006
1983 1983-05-01 9.02 13,5006
1984 1983-12-14 9.35 14,7006
1985 1984-12-30 9.92 17,0006
1986 1986-03-31 8.60 12,0006
1987 1987-04-01 10.10 17,8006
1988 1988-04-05 7.49 8,5306
1989 1988-11-06 7.73 9,2206
1990 1990-03-18 9.45 15,1006
1991 1991-04-10 8.19 10,6006
1992 1992-04-23 8.90 13,0006
1993 1993-04-17 10.27 19,8006
1994 1994-04-17 9.41 15,9006
1995 1995-01-17 6.94 7,3106
1996 1995-10-22 9.91 18,1006
1997 1996-11-10 9.73 17,3006
1998 1998-01-09 11.54 26,3006
1999 1999-04-04 7.34 8,4606
2000 2000-03-28 8.422 12,2006
2001 2001-04-24 9.71 17,2006
2002 2002-04-14 9.48 16,2006
2003 2003-03-30 7.39 8,9206
2004 2004-05-25 8.59 12,7006
2005 2005-04-03 9.33 15,8006
2006 2006-06-28 9.36 16,0006
2007 2007-04-24 9.50 16,6006
2008 2008-04-13 8.93 14,3006
2009 2009-04-04 7.87 10,6006
2010 2010-03-23 8.31 12,1006
2011 2011-04-28 13.65 34,9006
2012 2012-03-20 6.78 7,1706
2013 2013-04-20 8.55 13,1006
2014 2014-04-15 11.54 24,8006
2015 2015-04-22 7.73 10,2006
2016 2016-03-11 6.87 7,4406
2017 2017-04-12 8.33 11,9006
2018 2018-04-26 8.86 13,7006
2019 2019-04-21 10.68 20,9006
?
  Peak Gage-Height Qualification Codes.
?
  Peak Streamflow Qualification Codes.